createdAt,value
2018-03-28T00:00:52.710Z,994.06
2018-03-28T00:01:52.683Z,994.09
2018-03-28T00:02:52.658Z,994.05
2018-03-28T00:03:52.630Z,994.09
2018-03-28T00:04:52.604Z,994.07
2018-03-28T00:05:52.576Z,994.13
2018-03-28T00:06:52.550Z,994.08
2018-03-28T00:07:52.523Z,994.1
2018-03-28T00:08:52.496Z,994.14
2018-03-28T00:09:52.470Z,994.14
2018-03-28T00:10:52.446Z,994.14
2018-03-28T00:11:52.431Z,994.13
2018-03-28T00:12:52.389Z,994.12
2018-03-28T00:13:52.371Z,994.11
2018-03-28T00:14:52.336Z,994.08
2018-03-28T00:15:52.309Z,994.08
2018-03-28T00:16:52.280Z,994.11
2018-03-28T00:17:52.260Z,994.14
2018-03-28T00:18:52.229Z,994.18
2018-03-28T00:19:52.200Z,994.17
2018-03-28T00:20:52.175Z,994.14
2018-03-28T00:21:52.148Z,994.17
2018-03-28T00:22:52.123Z,994.13
2018-03-28T00:23:52.100Z,994.19
2018-03-28T00:24:52.068Z,994.18
2018-03-28T00:25:52.042Z,994.18
2018-03-28T00:26:52.015Z,994.17
2018-03-28T00:27:51.987Z,994.14
2018-03-28T00:28:51.961Z,994.18
2018-03-28T00:29:51.934Z,994.14
2018-03-28T00:30:51.906Z,994.12
2018-03-28T00:31:51.881Z,994.1
2018-03-28T00:32:51.854Z,994.12
2018-03-28T00:33:51.829Z,994.09
2018-03-28T00:34:51.804Z,994.09
2018-03-28T00:35:51.776Z,994.06
2018-03-28T00:36:51.747Z,994.04
2018-03-28T00:37:51.724Z,993.99
2018-03-28T00:38:51.692Z,994.01
2018-03-28T00:39:51.667Z,993.97
2018-03-28T00:40:51.640Z,993.91
2018-03-28T00:41:51.612Z,993.93
2018-03-28T00:42:51.585Z,993.9
2018-03-28T00:43:51.559Z,993.87
2018-03-28T00:44:51.532Z,993.87
2018-03-28T00:45:51.506Z,993.81
2018-03-28T00:46:51.479Z,993.79
2018-03-28T00:47:51.452Z,993.77
2018-03-28T00:48:51.426Z,993.78
2018-03-28T00:49:51.399Z,993.74
2018-03-28T00:50:51.373Z,993.8
2018-03-28T00:51:51.347Z,993.84
2018-03-28T00:52:51.319Z,993.78
2018-03-28T00:53:51.297Z,993.8
2018-03-28T00:54:51.265Z,993.81
2018-03-28T00:55:51.242Z,993.78
2018-03-28T00:56:51.212Z,993.73
2018-03-28T00:57:51.184Z,993.78
2018-03-28T00:58:51.159Z,993.77
2018-03-28T00:59:51.132Z,993.78
2018-03-28T01:00:51.109Z,993.78
2018-03-28T01:01:51.077Z,993.76
2018-03-28T01:02:51.051Z,993.78
2018-03-28T01:03:51.025Z,993.71
2018-03-28T01:04:50.998Z,993.73
2018-03-28T01:05:50.971Z,993.76
2018-03-28T01:06:50.945Z,993.72
2018-03-28T01:07:50.918Z,993.76
2018-03-28T01:08:50.891Z,993.69
2018-03-28T01:09:50.863Z,993.72
2018-03-28T01:10:50.837Z,993.73
2018-03-28T01:11:50.811Z,993.7
2018-03-28T01:12:50.785Z,993.69
2018-03-28T01:13:50.758Z,993.69
2018-03-28T01:14:50.729Z,993.68
2018-03-28T01:15:50.704Z,993.69
2018-03-28T01:16:50.677Z,993.63
2018-03-28T01:17:50.653Z,993.64
2018-03-28T01:18:50.623Z,993.64
2018-03-28T01:19:50.597Z,993.69
2018-03-28T01:20:50.572Z,993.7
2018-03-28T01:21:50.543Z,993.64
2018-03-28T01:22:50.519Z,993.69
2018-03-28T01:23:50.490Z,993.69
2018-03-28T01:24:50.464Z,993.65
2018-03-28T01:25:50.435Z,993.66
2018-03-28T01:26:50.409Z,993.62
2018-03-28T01:27:50.382Z,993.63
2018-03-28T01:28:50.357Z,993.62
2018-03-28T01:29:50.328Z,993.62
2018-03-28T01:30:50.308Z,993.61
2018-03-28T01:31:50.277Z,993.64
2018-03-28T01:32:50.249Z,993.6
2018-03-28T01:33:50.224Z,993.58
2018-03-28T01:34:50.194Z,993.58
2018-03-28T01:35:50.169Z,993.57
2018-03-28T01:36:50.141Z,993.52
2018-03-28T01:37:50.116Z,993.54
2018-03-28T01:38:50.091Z,993.54
2018-03-28T01:39:50.063Z,993.52
2018-03-28T01:40:50.035Z,993.52
2018-03-28T01:41:50.008Z,993.49
2018-03-28T01:42:49.996Z,993.51
2018-03-28T01:43:49.955Z,993.48
2018-03-28T01:44:49.937Z,993.51
2018-03-28T01:45:49.903Z,993.47
2018-03-28T01:46:49.875Z,993.46
2018-03-28T01:47:49.848Z,993.46
2018-03-28T01:48:49.822Z,993.41
2018-03-28T01:49:49.794Z,993.39
2018-03-28T01:50:49.768Z,993.4
2018-03-28T01:51:49.744Z,993.43
2018-03-28T01:52:49.716Z,993.48
2018-03-28T01:53:49.689Z,993.52
2018-03-28T01:54:49.662Z,993.54
2018-03-28T01:55:49.635Z,993.49
2018-03-28T01:56:49.609Z,993.46
2018-03-28T01:57:49.582Z,993.53
2018-03-28T01:58:49.556Z,993.48
2018-03-28T01:59:49.529Z,993.51
2018-03-28T02:00:49.503Z,993.51
2018-03-28T02:01:49.477Z,993.45
2018-03-28T02:02:49.450Z,993.42
2018-03-28T02:03:49.423Z,993.45
2018-03-28T02:04:49.403Z,993.48
2018-03-28T02:05:49.368Z,993.46
2018-03-28T02:06:49.394Z,993.48
2018-03-28T02:07:49.316Z,993.51
2018-03-28T02:08:49.291Z,993.49
2018-03-28T02:09:49.262Z,993.55
2018-03-28T02:10:49.237Z,993.56
2018-03-28T02:11:49.211Z,993.55
2018-03-28T02:12:49.184Z,993.57
2018-03-28T02:13:49.157Z,993.57
2018-03-28T02:14:49.130Z,993.57
2018-03-28T02:15:49.104Z,993.57
2018-03-28T02:16:49.078Z,993.63
2018-03-28T02:17:49.050Z,993.62
2018-03-28T02:18:49.023Z,993.64
2018-03-28T02:19:48.998Z,993.67
2018-03-28T02:20:48.971Z,993.65
2018-03-28T02:21:48.947Z,993.67
2018-03-28T02:22:48.917Z,993.69
2018-03-28T02:23:48.892Z,993.7
2018-03-28T02:24:48.866Z,993.69
2018-03-28T02:25:48.839Z,993.76
2018-03-28T02:26:48.821Z,993.73
2018-03-28T02:27:48.785Z,993.75
2018-03-28T02:28:48.759Z,993.73
2018-03-28T02:29:48.732Z,993.71
2018-03-28T02:30:48.711Z,993.74
2018-03-28T02:31:48.680Z,993.74
2018-03-28T02:32:48.654Z,993.73
2018-03-28T02:33:48.625Z,993.71
2018-03-28T02:34:48.600Z,993.73
2018-03-28T02:35:48.572Z,993.7
2018-03-28T02:36:48.545Z,993.69
2018-03-28T02:37:48.524Z,993.68
2018-03-28T02:38:48.492Z,993.68
2018-03-28T02:39:48.468Z,993.67
2018-03-28T02:40:48.443Z,993.64
2018-03-28T02:41:48.413Z,993.65
2018-03-28T02:42:48.385Z,993.63
2018-03-28T02:43:48.359Z,993.59
2018-03-28T02:44:48.339Z,993.57
2018-03-28T02:45:48.309Z,993.56
2018-03-28T02:46:48.279Z,993.6
2018-03-28T02:47:48.253Z,993.57
2018-03-28T02:48:48.230Z,993.62
2018-03-28T02:49:48.198Z,993.61
2018-03-28T02:50:48.174Z,993.59
2018-03-28T02:51:48.147Z,993.64
2018-03-28T02:52:48.121Z,993.62
2018-03-28T02:53:48.094Z,993.62
2018-03-28T02:54:48.067Z,993.63
2018-03-28T02:55:48.041Z,993.6
2018-03-28T02:56:48.015Z,993.55
2018-03-28T02:57:47.987Z,993.56
2018-03-28T02:58:47.960Z,993.61
2018-03-28T02:59:47.933Z,993.5
2018-03-28T03:00:47.907Z,993.49
2018-03-28T03:01:47.879Z,993.48
2018-03-28T03:02:47.857Z,993.46
2018-03-28T03:03:47.828Z,993.43
2018-03-28T03:04:47.802Z,993.42
2018-03-28T03:05:47.776Z,993.44
2018-03-28T03:06:47.748Z,993.46
2018-03-28T03:07:47.722Z,993.44
2018-03-28T03:08:47.695Z,993.4
2018-03-28T03:09:47.668Z,993.46
2018-03-28T03:10:47.642Z,993.48
2018-03-28T03:11:47.615Z,993.5
2018-03-28T03:12:47.588Z,993.48
2018-03-28T03:13:47.562Z,993.47
2018-03-28T03:14:47.537Z,993.5
2018-03-28T03:15:47.609Z,993.48
2018-03-28T03:16:47.482Z,993.45
2018-03-28T03:17:47.456Z,993.51
2018-03-28T03:18:47.428Z,993.46
2018-03-28T03:19:47.402Z,993.46
2018-03-28T03:20:47.375Z,993.41
2018-03-28T03:21:47.350Z,993.39
2018-03-28T03:22:47.324Z,993.38
2018-03-28T03:23:47.296Z,993.37
2018-03-28T03:24:47.270Z,993.43
2018-03-28T03:25:47.245Z,993.41
2018-03-28T03:26:47.216Z,993.4
2018-03-28T03:27:47.190Z,993.41
2018-03-28T03:28:47.164Z,993.4
2018-03-28T03:29:47.137Z,993.41
2018-03-28T03:30:47.117Z,993.4
2018-03-28T03:31:47.086Z,993.4
2018-03-28T03:32:47.057Z,993.44
2018-03-28T03:33:47.029Z,993.43
2018-03-28T03:34:47.005Z,993.45
2018-03-28T03:35:46.978Z,993.43
2018-03-28T03:36:46.952Z,993.4
2018-03-28T03:37:46.924Z,993.41
2018-03-28T03:38:46.899Z,993.35
2018-03-28T03:39:46.872Z,993.39
2018-03-28T03:40:46.845Z,993.34
2018-03-28T03:41:46.819Z,993.36
2018-03-28T03:42:46.792Z,993.38
2018-03-28T03:43:46.766Z,993.31
2018-03-28T03:44:46.762Z,993.31
2018-03-28T03:45:46.712Z,993.31
2018-03-28T03:46:46.686Z,993.36
2018-03-28T03:47:46.663Z,993.33
2018-03-28T03:48:46.632Z,993.34
2018-03-28T03:49:46.606Z,993.39
2018-03-28T03:50:46.586Z,993.4
2018-03-28T03:51:46.552Z,993.42
2018-03-28T03:52:46.526Z,993.46
2018-03-28T03:53:46.499Z,993.45
2018-03-28T03:54:46.492Z,993.42
2018-03-28T03:55:46.447Z,993.48
2018-03-28T03:56:46.422Z,993.44
2018-03-28T03:57:46.394Z,993.52
2018-03-28T03:58:46.395Z,993.49
2018-03-28T03:59:46.341Z,993.54
2018-03-28T04:00:46.315Z,993.53
2018-03-28T04:01:46.288Z,993.58
2018-03-28T04:02:46.261Z,993.58
2018-03-28T04:03:46.234Z,993.59
2018-03-28T04:04:46.210Z,993.61
2018-03-28T04:05:46.182Z,993.57
2018-03-28T04:06:46.154Z,993.6
2018-03-28T04:07:46.129Z,993.55
2018-03-28T04:08:46.103Z,993.56
2018-03-28T04:09:46.075Z,993.54
2018-03-28T04:10:46.049Z,993.52
2018-03-28T04:11:46.023Z,993.55
2018-03-28T04:12:45.996Z,993.56
2018-03-28T04:13:45.970Z,993.58
2018-03-28T04:14:45.942Z,993.56
2018-03-28T04:15:45.915Z,993.57
2018-03-28T04:16:45.889Z,993.59
2018-03-28T04:17:45.862Z,993.61
2018-03-28T04:18:45.834Z,993.61
2018-03-28T04:19:45.809Z,993.64
2018-03-28T04:20:45.781Z,993.63
2018-03-28T04:21:45.755Z,993.62
2018-03-28T04:22:45.729Z,993.64
2018-03-28T04:23:45.704Z,993.65
2018-03-28T04:24:45.678Z,993.65
2018-03-28T04:25:45.649Z,993.6
2018-03-28T04:26:45.623Z,993.62
2018-03-28T04:27:45.596Z,993.61
2018-03-28T04:28:45.569Z,993.62
2018-03-28T04:29:45.544Z,993.61
2018-03-28T04:30:45.520Z,993.6
2018-03-28T04:31:45.490Z,993.56
2018-03-28T04:32:45.464Z,993.56
2018-03-28T04:33:45.437Z,993.58
2018-03-28T04:34:45.412Z,993.52
2018-03-28T04:35:45.383Z,993.49
2018-03-28T04:36:45.358Z,993.47
2018-03-28T04:37:45.332Z,993.49
2018-03-28T04:38:45.306Z,993.44
2018-03-28T04:39:45.284Z,993.45
2018-03-28T04:40:45.251Z,993.49
2018-03-28T04:41:45.226Z,993.48
2018-03-28T04:42:45.198Z,993.52
2018-03-28T04:43:45.178Z,993.51
2018-03-28T04:44:45.145Z,993.5
2018-03-28T04:45:45.119Z,993.51
2018-03-28T04:46:45.091Z,993.42
2018-03-28T04:47:45.067Z,993.44
2018-03-28T04:48:45.040Z,993.43
2018-03-28T04:49:45.014Z,993.45
2018-03-28T04:50:44.986Z,993.47
2018-03-28T04:51:44.959Z,993.46
2018-03-28T04:52:44.934Z,993.49
2018-03-28T04:53:44.906Z,993.44
2018-03-28T04:54:44.880Z,993.52
2018-03-28T04:55:44.866Z,993.53
2018-03-28T04:56:44.828Z,993.55
2018-03-28T04:57:44.904Z,993.47
2018-03-28T04:58:44.775Z,993.49
2018-03-28T04:59:44.749Z,993.51
2018-03-28T05:00:44.723Z,993.49
2018-03-28T05:01:44.696Z,993.51
2018-03-28T05:02:44.673Z,993.57
2018-03-28T05:03:44.643Z,993.55
2018-03-28T05:04:44.616Z,993.56
2018-03-28T05:05:44.590Z,993.58
2018-03-28T05:06:44.564Z,993.59
2018-03-28T05:07:44.537Z,993.61
2018-03-28T05:08:44.511Z,993.59
2018-03-28T05:09:44.491Z,993.59
2018-03-28T05:10:44.458Z,993.58
2018-03-28T05:11:44.431Z,993.54
2018-03-28T05:12:44.406Z,993.51
2018-03-28T05:13:44.379Z,993.56
2018-03-28T05:14:44.354Z,993.55
2018-03-28T05:15:44.398Z,993.56
2018-03-28T05:16:44.300Z,993.59
2018-03-28T05:17:44.278Z,993.61
2018-03-28T05:18:44.247Z,993.59
2018-03-28T05:19:44.221Z,993.61
2018-03-28T05:20:44.196Z,993.63
2018-03-28T05:21:44.168Z,993.66
2018-03-28T05:22:44.209Z,993.67
2018-03-28T05:23:44.116Z,993.66
2018-03-28T05:24:44.088Z,993.68
2018-03-28T05:25:44.062Z,993.68
2018-03-28T05:26:44.036Z,993.74
2018-03-28T05:27:44.009Z,993.69
2018-03-28T05:28:43.983Z,993.68
2018-03-28T05:29:43.957Z,993.69
2018-03-28T05:30:43.931Z,993.62
2018-03-28T05:31:43.904Z,993.68
2018-03-28T05:32:43.878Z,993.64
2018-03-28T05:33:43.851Z,993.67
2018-03-28T05:34:43.826Z,993.68
2018-03-28T05:35:43.798Z,993.68
2018-03-28T05:36:43.776Z,993.75
2018-03-28T05:37:43.747Z,993.74
2018-03-28T05:38:43.719Z,993.75
2018-03-28T05:39:43.693Z,993.76
2018-03-28T05:40:43.668Z,993.8
2018-03-28T05:41:43.641Z,993.78
2018-03-28T05:42:43.614Z,993.76
2018-03-28T05:43:43.588Z,993.77
2018-03-28T05:44:43.567Z,993.74
2018-03-28T05:45:43.534Z,993.74
2018-03-28T05:46:43.507Z,993.74
2018-03-28T05:47:43.483Z,993.77
2018-03-28T05:48:43.457Z,993.77
2018-03-28T05:49:43.480Z,993.79
2018-03-28T05:50:43.402Z,993.75
2018-03-28T05:51:43.376Z,993.76
2018-03-28T05:52:43.347Z,993.78
2018-03-28T05:53:43.322Z,993.78
2018-03-28T05:54:43.296Z,993.78
2018-03-28T05:55:43.273Z,993.78
2018-03-28T05:56:43.243Z,993.82
2018-03-28T05:57:43.218Z,993.83
2018-03-28T05:58:43.190Z,993.83
2018-03-28T05:59:43.163Z,993.81
2018-03-28T06:00:43.138Z,993.78
2018-03-28T06:01:43.112Z,993.76
2018-03-28T06:02:43.085Z,993.8
2018-03-28T06:03:43.058Z,993.77
2018-03-28T06:04:43.031Z,993.79
2018-03-28T06:05:43.006Z,993.78
2018-03-28T06:06:42.979Z,993.79
2018-03-28T06:07:42.962Z,993.76
2018-03-28T06:08:42.926Z,993.79
2018-03-28T06:09:42.900Z,993.83
2018-03-28T06:10:42.874Z,993.75
2018-03-28T06:11:42.847Z,993.82
2018-03-28T06:12:42.821Z,993.77
2018-03-28T06:13:42.793Z,993.81
2018-03-28T06:14:42.766Z,993.77
2018-03-28T06:15:42.741Z,993.79
2018-03-28T06:16:42.715Z,993.75
2018-03-28T06:17:42.687Z,993.79
2018-03-28T06:18:42.662Z,993.82
2018-03-28T06:19:42.638Z,993.8
2018-03-28T06:20:42.608Z,993.8
2018-03-28T06:21:42.586Z,993.8
2018-03-28T06:22:42.556Z,993.75
2018-03-28T06:23:42.530Z,993.79
2018-03-28T06:24:42.506Z,993.75
2018-03-28T06:25:42.478Z,993.74
2018-03-28T06:26:42.455Z,993.75
2018-03-28T06:27:42.427Z,993.8
2018-03-28T06:28:42.399Z,993.82
2018-03-28T06:29:42.372Z,993.83
2018-03-28T06:30:42.403Z,993.81
2018-03-28T06:31:42.324Z,993.87
2018-03-28T06:32:42.296Z,993.82
2018-03-28T06:33:42.878Z,993.81
2018-03-28T06:34:42.377Z,993.77
2018-03-28T06:35:42.215Z,993.79
2018-03-28T06:36:42.187Z,993.8
2018-03-28T06:37:42.161Z,993.73
2018-03-28T06:38:42.140Z,993.71
2018-03-28T06:39:42.195Z,993.73
2018-03-28T06:40:42.082Z,993.72
2018-03-28T06:41:42.057Z,993.73
2018-03-28T06:42:42.031Z,993.76
2018-03-28T06:43:42.238Z,993.76
2018-03-28T06:44:42.363Z,993.72
2018-03-28T06:45:42.254Z,993.75
2018-03-28T06:46:41.924Z,993.7
2018-03-28T06:47:41.898Z,993.79
2018-03-28T06:48:41.899Z,993.76
2018-03-28T06:49:41.941Z,993.77
2018-03-28T06:50:42.125Z,993.74
2018-03-28T06:51:41.845Z,993.74
2018-03-28T06:52:42.262Z,993.75
2018-03-28T06:53:41.936Z,993.74
2018-03-28T06:54:41.817Z,993.71
2018-03-28T06:55:41.687Z,993.7
2018-03-28T06:56:41.660Z,993.74
2018-03-28T06:57:41.737Z,993.71
2018-03-28T06:58:41.606Z,993.65
2018-03-28T06:59:41.612Z,993.69
2018-03-28T07:00:41.556Z,993.65
2018-03-28T07:01:41.529Z,993.67
2018-03-28T07:02:41.502Z,993.68
2018-03-28T07:03:41.477Z,993.7
2018-03-28T07:04:41.451Z,993.66
2018-03-28T07:05:41.501Z,993.61
2018-03-28T07:06:41.544Z,993.6
2018-03-28T07:07:41.373Z,993.56
2018-03-28T07:08:41.348Z,993.5
2018-03-28T07:09:41.322Z,993.55
2018-03-28T07:10:41.295Z,993.47
2018-03-28T07:11:41.271Z,993.55
2018-03-28T07:12:41.244Z,993.55
2018-03-28T07:13:41.219Z,993.57
2018-03-28T07:14:41.341Z,993.59
2018-03-28T07:15:41.168Z,993.58
2018-03-28T07:16:41.141Z,993.58
2018-03-28T07:17:41.116Z,993.59
2018-03-28T07:18:41.179Z,993.59
2018-03-28T07:19:41.417Z,993.52
2018-03-28T07:20:41.095Z,993.55
2018-03-28T07:21:41.013Z,993.52
2018-03-28T07:22:40.990Z,993.53
2018-03-28T07:23:40.964Z,993.54
2018-03-28T07:24:40.939Z,993.57
2018-03-28T07:25:40.915Z,993.55
2018-03-28T07:26:40.888Z,993.58
2018-03-28T07:27:40.863Z,993.58
2018-03-28T07:28:40.858Z,993.55
2018-03-28T07:29:40.819Z,993.54
2018-03-28T07:30:40.787Z,993.54
2018-03-28T07:31:40.761Z,993.56
2018-03-28T07:32:40.738Z,993.47
2018-03-28T07:33:40.712Z,993.46
2018-03-28T07:34:40.687Z,993.46
2018-03-28T07:35:41.665Z,993.45
2018-03-28T07:36:40.636Z,993.49
2018-03-28T07:37:40.612Z,993.5
2018-03-28T07:38:40.585Z,993.53
2018-03-28T07:39:40.560Z,993.49
2018-03-28T07:40:40.536Z,993.5
2018-03-28T07:41:40.510Z,993.47
2018-03-28T07:42:40.484Z,993.46
2018-03-28T07:43:40.465Z,993.51
2018-03-28T07:44:40.434Z,993.51
2018-03-28T07:45:40.409Z,993.51
2018-03-28T07:46:40.647Z,993.54
2018-03-28T07:47:40.363Z,993.53
2018-03-28T07:48:40.338Z,993.56
2018-03-28T07:49:40.310Z,993.52
2018-03-28T07:50:40.285Z,993.5
2018-03-28T07:51:40.264Z,993.49
2018-03-28T07:52:40.234Z,993.51
2018-03-28T07:53:40.211Z,993.46
2018-03-28T07:54:40.191Z,993.49
2018-03-28T07:55:40.161Z,993.47
2018-03-28T07:56:40.136Z,993.5
2018-03-28T07:57:40.115Z,993.48
2018-03-28T07:58:40.088Z,993.42
2018-03-28T07:59:40.063Z,993.45
2018-03-28T08:00:40.037Z,993.46
2018-03-28T08:01:40.014Z,993.43
2018-03-28T08:02:39.989Z,993.38
2018-03-28T08:03:39.964Z,993.44
2018-03-28T08:04:39.940Z,993.45
2018-03-28T08:05:39.962Z,993.45
2018-03-28T08:06:39.891Z,993.49
2018-03-28T08:07:39.870Z,993.46
2018-03-28T08:08:39.842Z,993.4
2018-03-28T08:09:39.817Z,993.44
2018-03-28T08:10:39.795Z,993.37
2018-03-28T08:11:39.769Z,993.43
2018-03-28T08:12:39.746Z,993.37
2018-03-28T08:13:39.723Z,993.42
2018-03-28T08:14:39.698Z,993.4
2018-03-28T08:15:39.676Z,993.33
2018-03-28T08:16:39.654Z,993.35
2018-03-28T08:17:39.628Z,993.31
2018-03-28T08:18:39.608Z,993.26
2018-03-28T08:19:39.583Z,993.25
2018-03-28T08:20:39.561Z,993.34
2018-03-28T08:21:39.536Z,993.36
2018-03-28T08:22:39.514Z,993.29
2018-03-28T08:23:39.490Z,993.28
2018-03-28T08:24:39.471Z,993.24
2018-03-28T08:25:39.703Z,993.28
2018-03-28T08:26:39.424Z,993.29
2018-03-28T08:27:39.401Z,993.27
2018-03-28T08:28:39.379Z,993.31
2018-03-28T08:29:39.356Z,993.29
2018-03-28T08:30:39.332Z,993.35
2018-03-28T08:31:39.314Z,993.35
2018-03-28T08:32:39.289Z,993.31
2018-03-28T08:33:39.266Z,993.3
2018-03-28T08:34:39.246Z,993.33
2018-03-28T08:35:39.223Z,993.29
2018-03-28T08:36:39.199Z,993.28
2018-03-28T08:37:39.176Z,993.33
2018-03-28T08:38:39.153Z,993.29
2018-03-28T08:39:39.134Z,993.3
2018-03-28T08:40:39.108Z,993.27
2018-03-28T08:41:39.085Z,993.26
2018-03-28T08:42:39.064Z,993.23
2018-03-28T08:43:39.040Z,993.28
2018-03-28T08:44:39.018Z,993.33
2018-03-28T08:45:38.996Z,993.29
2018-03-28T08:46:38.974Z,993.3
2018-03-28T08:47:38.951Z,993.32
2018-03-28T08:48:38.929Z,993.33
2018-03-28T08:49:38.906Z,993.29
2018-03-28T08:50:38.884Z,993.27
2018-03-28T08:51:38.860Z,993.29
2018-03-28T08:52:38.837Z,993.27
2018-03-28T08:53:38.815Z,993.35
2018-03-28T08:54:38.792Z,993.25
2018-03-28T08:55:38.768Z,993.19
2018-03-28T08:56:38.748Z,993.21
2018-03-28T08:57:38.727Z,993.15
2018-03-28T08:58:38.697Z,993.19
2018-03-28T08:59:38.675Z,993.15
2018-03-28T09:00:38.653Z,993.1
2018-03-28T09:01:38.631Z,993.12
2018-03-28T09:02:38.608Z,993.13
2018-03-28T09:03:38.583Z,993.16
2018-03-28T09:04:38.562Z,993.16
2018-03-28T09:05:38.539Z,993.1
2018-03-28T09:06:38.517Z,993.13
2018-03-28T09:07:38.494Z,993.15
2018-03-28T09:08:38.474Z,993.08
2018-03-28T09:09:38.451Z,993.1
2018-03-28T09:10:38.428Z,993.11
2018-03-28T09:11:38.456Z,993.08
2018-03-28T09:12:38.384Z,993.02
2018-03-28T09:13:38.365Z,993.02
2018-03-28T09:14:38.340Z,993.02
2018-03-28T09:15:38.319Z,992.95
2018-03-28T09:16:38.302Z,993
2018-03-28T09:17:38.465Z,992.97
2018-03-28T09:18:38.267Z,992.94
2018-03-28T09:19:38.234Z,992.94
2018-03-28T09:20:38.212Z,992.95
2018-03-28T09:21:38.191Z,992.9
2018-03-28T09:22:38.172Z,992.93
2018-03-28T09:23:38.153Z,992.95
2018-03-28T09:24:38.128Z,992.91
2018-03-28T09:25:38.107Z,992.87
2018-03-28T09:26:38.088Z,992.87
2018-03-28T09:27:38.107Z,992.86
2018-03-28T09:28:38.045Z,992.86
2018-03-28T09:29:38.025Z,992.78
2018-03-28T09:30:38.007Z,992.83
2018-03-28T09:31:37.986Z,992.82
2018-03-28T09:32:37.966Z,992.79
2018-03-28T09:33:37.945Z,992.76
2018-03-28T09:34:37.928Z,992.74
2018-03-28T09:35:37.904Z,992.77
2018-03-28T09:36:37.886Z,992.74
2018-03-28T09:37:37.866Z,992.8
2018-03-28T09:38:37.844Z,992.79
2018-03-28T09:39:37.826Z,992.79
2018-03-28T09:40:37.807Z,992.75
2018-03-28T09:41:37.787Z,992.73
2018-03-28T09:42:37.765Z,992.73
2018-03-28T09:43:37.747Z,992.71
2018-03-28T09:44:37.727Z,992.69
2018-03-28T09:45:37.707Z,992.65
2018-03-28T09:46:37.687Z,992.7
2018-03-28T09:47:37.667Z,992.65
2018-03-28T09:48:37.647Z,992.69
2018-03-28T09:49:37.626Z,992.73
2018-03-28T09:50:37.607Z,992.68
2018-03-28T09:51:37.587Z,992.67
2018-03-28T09:52:37.566Z,992.67
2018-03-28T09:53:37.546Z,992.7
2018-03-28T09:54:37.527Z,992.66
2018-03-28T09:55:37.507Z,992.7
2018-03-28T09:56:37.509Z,992.74
2018-03-28T09:57:37.716Z,992.68
2018-03-28T09:58:37.447Z,992.65
2018-03-28T09:59:37.427Z,992.66
2018-03-28T10:00:37.407Z,992.71
2018-03-28T10:01:37.386Z,992.65
2018-03-28T10:02:37.366Z,992.69
2018-03-28T10:03:37.346Z,992.63
2018-03-28T10:04:37.326Z,992.66
2018-03-28T10:05:37.304Z,992.66
2018-03-28T10:06:37.286Z,992.66
2018-03-28T10:07:37.265Z,992.64
2018-03-28T10:08:37.244Z,992.63
2018-03-28T10:09:37.224Z,992.64
2018-03-28T10:10:37.205Z,992.65
2018-03-28T10:11:37.183Z,992.61
2018-03-28T10:12:37.163Z,992.58
2018-03-28T10:13:37.143Z,992.56
2018-03-28T10:14:37.132Z,992.57
2018-03-28T10:15:37.109Z,992.55
2018-03-28T10:16:37.088Z,992.56
2018-03-28T10:17:37.064Z,992.61
2018-03-28T10:18:37.042Z,992.6
2018-03-28T10:19:37.075Z,992.62
2018-03-28T10:20:37.003Z,992.61
2018-03-28T10:21:36.982Z,992.57
2018-03-28T10:22:36.961Z,992.57
2018-03-28T10:23:36.939Z,992.57
2018-03-28T10:24:36.920Z,992.58
2018-03-28T10:25:36.899Z,992.59
2018-03-28T10:26:36.920Z,992.57
2018-03-28T10:27:36.856Z,992.57
2018-03-28T10:28:36.835Z,992.59
2018-03-28T10:29:36.813Z,992.51
2018-03-28T10:30:36.796Z,992.53
2018-03-28T10:31:36.771Z,992.54
2018-03-28T10:32:36.751Z,992.55
2018-03-28T10:33:36.728Z,992.56
2018-03-28T10:34:36.710Z,992.49
2018-03-28T10:35:36.688Z,992.47
2018-03-28T10:36:36.667Z,992.47
2018-03-28T10:37:36.645Z,992.48
2018-03-28T10:38:36.624Z,992.45
2018-03-28T10:39:36.603Z,992.5
2018-03-28T10:40:36.581Z,992.44
2018-03-28T10:41:36.560Z,992.42
2018-03-28T10:42:36.539Z,992.46
2018-03-28T10:43:36.517Z,992.44
2018-03-28T10:44:36.494Z,992.43
2018-03-28T10:45:36.473Z,992.42
2018-03-28T10:46:36.451Z,992.39
2018-03-28T10:47:36.431Z,992.38
2018-03-28T10:48:36.434Z,992.33
2018-03-28T10:49:36.387Z,992.33
2018-03-28T10:50:36.367Z,992.35
2018-03-28T10:51:36.342Z,992.28
2018-03-28T10:52:36.322Z,992.27
2018-03-28T10:53:36.300Z,992.24
2018-03-28T10:54:36.279Z,992.23
2018-03-28T10:55:36.257Z,992.23
2018-03-28T10:56:36.234Z,992.24
2018-03-28T10:57:36.214Z,992.17
2018-03-28T10:58:36.193Z,992.16
2018-03-28T10:59:36.168Z,992.15
2018-03-28T11:00:36.147Z,992.13
2018-03-28T11:01:36.126Z,992.17
2018-03-28T11:02:36.104Z,992.16
2018-03-28T11:03:36.084Z,992.13
2018-03-28T11:04:36.066Z,992.08
2018-03-28T11:05:36.040Z,992.1
2018-03-28T11:06:36.020Z,992.08
2018-03-28T11:07:35.998Z,992.09
2018-03-28T11:08:35.978Z,992.09
2018-03-28T11:09:35.953Z,992.04
2018-03-28T11:10:35.930Z,992
2018-03-28T11:11:35.908Z,992.01
2018-03-28T11:12:35.888Z,992.02
2018-03-28T11:13:35.863Z,991.99
2018-03-28T11:14:35.843Z,991.99
2018-03-28T11:15:35.822Z,991.95
2018-03-28T11:16:35.801Z,991.94
2018-03-28T11:17:35.778Z,991.88
2018-03-28T11:18:35.757Z,991.88
2018-03-28T11:19:35.735Z,991.87
2018-03-28T11:20:35.722Z,991.84
2018-03-28T11:21:35.691Z,991.83
2018-03-28T11:22:35.676Z,991.8
2018-03-28T11:23:35.648Z,991.8
2018-03-28T11:24:35.626Z,991.76
2018-03-28T11:25:35.631Z,991.73
2018-03-28T11:26:35.584Z,991.73
2018-03-28T11:27:35.561Z,991.73
2018-03-28T11:28:35.540Z,991.71
2018-03-28T11:29:35.519Z,991.69
2018-03-28T11:30:35.496Z,991.66
2018-03-28T11:31:35.476Z,991.65
2018-03-28T11:32:35.485Z,991.66
2018-03-28T11:33:35.432Z,991.7
2018-03-28T11:34:35.409Z,991.6
2018-03-28T11:35:35.387Z,991.59
2018-03-28T11:36:35.366Z,991.57
2018-03-28T11:37:35.343Z,991.58
2018-03-28T11:38:35.422Z,991.53
2018-03-28T11:39:35.299Z,991.47
2018-03-28T11:40:35.277Z,991.47
2018-03-28T11:41:35.253Z,991.46
2018-03-28T11:42:35.233Z,991.44
2018-03-28T11:43:35.208Z,991.41
2018-03-28T11:44:35.188Z,991.37
2018-03-28T11:45:35.165Z,991.38
2018-03-28T11:46:35.142Z,991.4
2018-03-28T11:47:35.124Z,991.37
2018-03-28T11:48:35.206Z,991.32
2018-03-28T11:49:35.077Z,991.32
2018-03-28T11:50:35.054Z,991.32
2018-03-28T11:51:35.032Z,991.27
2018-03-28T11:52:35.010Z,991.23
2018-03-28T11:53:34.993Z,991.21
2018-03-28T11:54:34.967Z,991.21
2018-03-28T11:55:34.945Z,991.19
2018-03-28T11:56:34.924Z,991.16
2018-03-28T11:57:34.901Z,991.12
2018-03-28T11:58:35.081Z,991.09
2018-03-28T11:59:35.179Z,991.1
2018-03-28T12:00:34.836Z,991.1
2018-03-28T12:01:34.813Z,991.13
2018-03-28T12:02:34.791Z,991.05
2018-03-28T12:03:34.769Z,991.08
2018-03-28T12:04:34.770Z,991.04
2018-03-28T12:05:34.726Z,991.03
2018-03-28T12:06:34.704Z,990.99
2018-03-28T12:07:34.682Z,991
2018-03-28T12:08:34.664Z,990.97
2018-03-28T12:09:34.639Z,990.93
2018-03-28T12:10:34.616Z,990.88
2018-03-28T12:11:34.596Z,990.85
2018-03-28T12:12:34.573Z,990.88
2018-03-28T12:13:34.552Z,990.87
2018-03-28T12:14:34.530Z,990.83
2018-03-28T12:15:34.509Z,990.81
2018-03-28T12:16:34.489Z,990.76
2018-03-28T12:17:34.465Z,990.73
2018-03-28T12:18:34.446Z,990.71
2018-03-28T12:19:34.422Z,990.63
2018-03-28T12:20:34.401Z,990.62
2018-03-28T12:21:34.379Z,990.53
2018-03-28T12:22:34.360Z,990.47
2018-03-28T12:23:34.336Z,990.49
2018-03-28T12:24:34.316Z,990.48
2018-03-28T12:25:34.294Z,990.47
2018-03-28T12:26:34.273Z,990.43
2018-03-28T12:27:34.253Z,990.43
2018-03-28T12:28:34.231Z,990.4
2018-03-28T12:29:34.210Z,990.42
2018-03-28T12:30:34.190Z,990.33